sensor_id;sensor_type;location;lat;lon;timestamp;P1;durP1;ratioP1;P2;durP2;ratioP2
5718;SDS011;2884;47.734;9.244;2023-09-08T00:01:24;6.53;;;4.97;;
5718;SDS011;2884;47.734;9.244;2023-09-08T00:03:53;6.10;;;4.77;;
5718;SDS011;2884;47.734;9.244;2023-09-08T00:06:18;4.80;;;4.30;;
5718;SDS011;2884;47.734;9.244;2023-09-08T00:08:47;4.13;;;3.93;;
5718;SDS011;2884;47.734;9.244;2023-09-08T00:11:12;4.70;;;4.40;;
5718;SDS011;2884;47.734;9.244;2023-09-08T00:13:38;5.33;;;4.47;;
5718;SDS011;2884;47.734;9.244;2023-09-08T00:16:05;4.20;;;4.00;;
5718;SDS011;2884;47.734;9.244;2023-09-08T00:18:34;3.83;;;3.67;;
5718;SDS011;2884;47.734;9.244;2023-09-08T00:21:00;5.80;;;5.30;;
5718;SDS011;2884;47.734;9.244;2023-09-08T00:23:25;4.37;;;4.17;;
5718;SDS011;2884;47.734;9.244;2023-09-08T00:25:53;4.27;;;3.87;;
5718;SDS011;2884;47.734;9.244;2023-09-08T00:28:19;4.00;;;3.80;;
5718;SDS011;2884;47.734;9.244;2023-09-08T00:30:45;4.57;;;4.27;;
5718;SDS011;2884;47.734;9.244;2023-09-08T00:33:11;6.87;;;4.80;;
5718;SDS011;2884;47.734;9.244;2023-09-08T00:35:39;4.90;;;4.50;;
5718;SDS011;2884;47.734;9.244;2023-09-08T00:38:05;4.57;;;4.27;;
5718;SDS011;2884;47.734;9.244;2023-09-08T00:40:31;4.40;;;4.10;;
5718;SDS011;2884;47.734;9.244;2023-09-08T00:42:57;4.97;;;4.57;;
5718;SDS011;2884;47.734;9.244;2023-09-08T00:45:23;4.70;;;4.30;;
5718;SDS011;2884;47.734;9.244;2023-09-08T00:47:49;5.33;;;4.43;;
5718;SDS011;2884;47.734;9.244;2023-09-08T00:50:16;4.90;;;4.47;;
5718;SDS011;2884;47.734;9.244;2023-09-08T00:52:41;4.80;;;4.50;;
5718;SDS011;2884;47.734;9.244;2023-09-08T00:55:08;4.77;;;4.47;;
5718;SDS011;2884;47.734;9.244;2023-09-08T00:57:34;4.73;;;4.30;;
5718;SDS011;2884;47.734;9.244;2023-09-08T01:00:00;4.53;;;4.17;;
5718;SDS011;2884;47.734;9.244;2023-09-08T01:02:26;4.93;;;4.53;;
5718;SDS011;2884;47.734;9.244;2023-09-08T01:04:52;4.43;;;3.90;;
5718;SDS011;2884;47.734;9.244;2023-09-08T01:07:18;5.87;;;4.77;;
5718;SDS011;2884;47.734;9.244;2023-09-08T01:09:45;4.60;;;4.20;;
5718;SDS011;2884;47.734;9.244;2023-09-08T01:12:11;4.80;;;4.40;;
5718;SDS011;2884;47.734;9.244;2023-09-08T01:14:37;5.00;;;4.53;;
5718;SDS011;2884;47.734;9.244;2023-09-08T01:17:03;10.27;;;4.73;;
5718;SDS011;2884;47.734;9.244;2023-09-08T01:19:30;5.13;;;3.90;;
5718;SDS011;2884;47.734;9.244;2023-09-08T01:22:15;4.50;;;4.17;;
5718;SDS011;2884;47.734;9.244;2023-09-08T01:27:25;6.10;;;3.70;;
5718;SDS011;2884;47.734;9.244;2023-09-08T01:29:52;4.03;;;3.70;;
5718;SDS011;2884;47.734;9.244;2023-09-08T01:32:18;9.10;;;4.33;;
5718;SDS011;2884;47.734;9.244;2023-09-08T01:34:44;4.33;;;4.03;;
5718;SDS011;2884;47.734;9.244;2023-09-08T01:37:10;4.23;;;3.90;;
5718;SDS011;2884;47.734;9.244;2023-09-08T01:39:36;5.47;;;4.30;;
5718;SDS011;2884;47.734;9.244;2023-09-08T01:42:02;4.40;;;4.07;;
5718;SDS011;2884;47.734;9.244;2023-09-08T01:44:28;4.60;;;4.20;;
5718;SDS011;2884;47.734;9.244;2023-09-08T01:46:54;4.67;;;4.40;;
5718;SDS011;2884;47.734;9.244;2023-09-08T01:49:22;4.10;;;3.90;;
5718;SDS011;2884;47.734;9.244;2023-09-08T01:51:48;5.03;;;4.73;;
5718;SDS011;2884;47.734;9.244;2023-09-08T01:54:14;4.37;;;4.17;;
5718;SDS011;2884;47.734;9.244;2023-09-08T01:56:39;5.27;;;4.80;;
5718;SDS011;2884;47.734;9.244;2023-09-08T01:59:05;4.40;;;4.00;;
5718;SDS011;2884;47.734;9.244;2023-09-08T02:01:30;5.30;;;4.27;;
5718;SDS011;2884;47.734;9.244;2023-09-08T02:03:56;4.20;;;4.00;;
5718;SDS011;2884;47.734;9.244;2023-09-08T02:06:21;3.97;;;3.70;;
5718;SDS011;2884;47.734;9.244;2023-09-08T02:08:47;5.00;;;4.60;;
5718;SDS011;2884;47.734;9.244;2023-09-08T02:11:12;4.87;;;4.57;;
5718;SDS011;2884;47.734;9.244;2023-09-08T02:13:38;4.70;;;4.30;;
5718;SDS011;2884;47.734;9.244;2023-09-08T02:16:05;4.17;;;3.83;;
5718;SDS011;2884;47.734;9.244;2023-09-08T02:18:32;4.50;;;4.10;;
5718;SDS011;2884;47.734;9.244;2023-09-08T02:20:57;3.93;;;3.70;;
5718;SDS011;2884;47.734;9.244;2023-09-08T02:23:23;7.40;;;3.90;;
5718;SDS011;2884;47.734;9.244;2023-09-08T02:25:48;4.83;;;4.43;;
5718;SDS011;2884;47.734;9.244;2023-09-08T02:28:14;4.43;;;4.17;;
5718;SDS011;2884;47.734;9.244;2023-09-08T02:30:39;5.10;;;4.37;;
5718;SDS011;2884;47.734;9.244;2023-09-08T02:33:05;4.60;;;4.23;;
5718;SDS011;2884;47.734;9.244;2023-09-08T02:35:35;4.63;;;4.33;;
5718;SDS011;2884;47.734;9.244;2023-09-08T02:38:01;5.40;;;5.00;;
5718;SDS011;2884;47.734;9.244;2023-09-08T02:40:27;4.63;;;4.37;;
5718;SDS011;2884;47.734;9.244;2023-09-08T02:42:52;5.03;;;4.60;;
5718;SDS011;2884;47.734;9.244;2023-09-08T02:45:18;4.60;;;4.30;;
5718;SDS011;2884;47.734;9.244;2023-09-08T02:47:43;4.50;;;4.10;;
5718;SDS011;2884;47.734;9.244;2023-09-08T02:50:09;4.77;;;4.47;;
5718;SDS011;2884;47.734;9.244;2023-09-08T02:52:34;4.90;;;4.50;;
5718;SDS011;2884;47.734;9.244;2023-09-08T02:55:00;5.27;;;4.77;;
5718;SDS011;2884;47.734;9.244;2023-09-08T02:57:26;5.10;;;4.70;;
5718;SDS011;2884;47.734;9.244;2023-09-08T02:59:52;7.00;;;4.93;;
5718;SDS011;2884;47.734;9.244;2023-09-08T03:02:17;4.93;;;4.30;;
5718;SDS011;2884;47.734;9.244;2023-09-08T03:04:43;4.40;;;4.00;;
5718;SDS011;2884;47.734;9.244;2023-09-08T03:07:08;4.37;;;4.07;;
5718;SDS011;2884;47.734;9.244;2023-09-08T03:09:34;6.43;;;4.20;;
5718;SDS011;2884;47.734;9.244;2023-09-08T03:12:00;7.93;;;5.00;;
5718;SDS011;2884;47.734;9.244;2023-09-08T03:14:25;4.20;;;3.80;;
5718;SDS011;2884;47.734;9.244;2023-09-08T03:16:50;4.50;;;4.23;;
5718;SDS011;2884;47.734;9.244;2023-09-08T03:19:16;4.43;;;4.13;;
5718;SDS011;2884;47.734;9.244;2023-09-08T03:21:42;3.97;;;3.77;;
5718;SDS011;2884;47.734;9.244;2023-09-08T03:24:07;4.27;;;4.07;;
5718;SDS011;2884;47.734;9.244;2023-09-08T03:26:33;4.40;;;4.10;;
5718;SDS011;2884;47.734;9.244;2023-09-08T03:28:58;4.20;;;4.00;;
5718;SDS011;2884;47.734;9.244;2023-09-08T03:31:24;4.23;;;4.03;;
5718;SDS011;2884;47.734;9.244;2023-09-08T03:33:49;4.40;;;4.00;;
5718;SDS011;2884;47.734;9.244;2023-09-08T03:36:15;3.97;;;3.77;;
5718;SDS011;2884;47.734;9.244;2023-09-08T03:38:40;4.20;;;3.90;;
5718;SDS011;2884;47.734;9.244;2023-09-08T03:41:06;5.10;;;3.90;;
5718;SDS011;2884;47.734;9.244;2023-09-08T03:43:32;4.67;;;4.37;;
5718;SDS011;2884;47.734;9.244;2023-09-08T03:45:57;4.67;;;4.27;;
5718;SDS011;2884;47.734;9.244;2023-09-08T03:48:23;5.33;;;4.93;;
5718;SDS011;2884;47.734;9.244;2023-09-08T03:50:48;5.20;;;4.67;;
5718;SDS011;2884;47.734;9.244;2023-09-08T03:53:14;4.90;;;4.57;;
5718;SDS011;2884;47.734;9.244;2023-09-08T03:55:40;4.77;;;4.47;;
5718;SDS011;2884;47.734;9.244;2023-09-08T03:58:05;4.97;;;4.67;;
5718;SDS011;2884;47.734;9.244;2023-09-08T04:00:31;5.60;;;5.10;;
5718;SDS011;2884;47.734;9.244;2023-09-08T04:02:56;5.63;;;5.23;;
5718;SDS011;2884;47.734;9.244;2023-09-08T04:05:22;5.40;;;4.93;;
5718;SDS011;2884;47.734;9.244;2023-09-08T04:07:47;4.87;;;4.40;;
5718;SDS011;2884;47.734;9.244;2023-09-08T04:10:13;5.60;;;5.20;;
5718;SDS011;2884;47.734;9.244;2023-09-08T04:12:39;5.10;;;4.60;;
5718;SDS011;2884;47.734;9.244;2023-09-08T04:15:05;4.10;;;3.90;;
5718;SDS011;2884;47.734;9.244;2023-09-08T04:17:31;5.37;;;4.97;;
5718;SDS011;2884;47.734;9.244;2023-09-08T04:19:56;4.47;;;4.07;;
5718;SDS011;2884;47.734;9.244;2023-09-08T04:22:25;5.13;;;4.60;;
5718;SDS011;2884;47.734;9.244;2023-09-08T04:24:50;4.43;;;4.03;;
5718;SDS011;2884;47.734;9.244;2023-09-08T04:27:16;5.27;;;4.70;;
5718;SDS011;2884;47.734;9.244;2023-09-08T04:29:41;5.43;;;4.90;;
5718;SDS011;2884;47.734;9.244;2023-09-08T04:32:07;4.53;;;4.23;;
5718;SDS011;2884;47.734;9.244;2023-09-08T04:34:38;4.73;;;4.33;;
5718;SDS011;2884;47.734;9.244;2023-09-08T04:37:04;5.57;;;5.10;;
5718;SDS011;2884;47.734;9.244;2023-09-08T04:39:30;4.97;;;4.60;;
5718;SDS011;2884;47.734;9.244;2023-09-08T04:41:55;5.47;;;5.00;;
5718;SDS011;2884;47.734;9.244;2023-09-08T04:44:21;4.40;;;4.20;;
5718;SDS011;2884;47.734;9.244;2023-09-08T04:46:47;4.73;;;4.50;;
5718;SDS011;2884;47.734;9.244;2023-09-08T04:49:13;4.80;;;4.50;;
5718;SDS011;2884;47.734;9.244;2023-09-08T04:51:42;5.30;;;5.00;;
5718;SDS011;2884;47.734;9.244;2023-09-08T04:54:08;5.70;;;5.30;;
5718;SDS011;2884;47.734;9.244;2023-09-08T04:56:33;4.87;;;4.03;;
5718;SDS011;2884;47.734;9.244;2023-09-08T04:59:01;4.63;;;4.33;;
5718;SDS011;2884;47.734;9.244;2023-09-08T05:01:27;5.43;;;4.97;;
5718;SDS011;2884;47.734;9.244;2023-09-08T05:03:55;4.77;;;4.43;;
5718;SDS011;2884;47.734;9.244;2023-09-08T05:06:21;4.77;;;4.47;;
5718;SDS011;2884;47.734;9.244;2023-09-08T05:08:47;4.87;;;4.47;;
5718;SDS011;2884;47.734;9.244;2023-09-08T05:11:12;4.53;;;4.13;;
5718;SDS011;2884;47.734;9.244;2023-09-08T05:13:38;5.00;;;4.53;;
5718;SDS011;2884;47.734;9.244;2023-09-08T05:16:04;7.10;;;4.67;;
5718;SDS011;2884;47.734;9.244;2023-09-08T05:18:39;4.80;;;4.40;;
5718;SDS011;2884;47.734;9.244;2023-09-08T05:21:06;4.97;;;4.67;;
5718;SDS011;2884;47.734;9.244;2023-09-08T05:23:31;5.30;;;4.60;;
5718;SDS011;2884;47.734;9.244;2023-09-08T05:25:57;4.90;;;4.50;;
5718;SDS011;2884;47.734;9.244;2023-09-08T05:28:23;5.37;;;4.97;;
5718;SDS011;2884;47.734;9.244;2023-09-08T05:30:51;4.80;;;4.50;;
5718;SDS011;2884;47.734;9.244;2023-09-08T05:33:17;5.80;;;4.63;;
5718;SDS011;2884;47.734;9.244;2023-09-08T05:35:44;5.40;;;5.00;;
5718;SDS011;2884;47.734;9.244;2023-09-08T05:38:10;4.93;;;4.67;;
5718;SDS011;2884;47.734;9.244;2023-09-08T05:40:35;6.60;;;4.33;;
5718;SDS011;2884;47.734;9.244;2023-09-08T05:43:01;6.00;;;4.63;;
5718;SDS011;2884;47.734;9.244;2023-09-08T05:45:27;5.97;;;5.03;;
5718;SDS011;2884;47.734;9.244;2023-09-08T05:47:53;5.23;;;4.70;;
5718;SDS011;2884;47.734;9.244;2023-09-08T05:50:18;5.20;;;4.70;;
5718;SDS011;2884;47.734;9.244;2023-09-08T05:52:44;5.60;;;4.77;;
5718;SDS011;2884;47.734;9.244;2023-09-08T05:55:10;5.17;;;4.87;;
5718;SDS011;2884;47.734;9.244;2023-09-08T05:57:35;5.77;;;5.17;;
5718;SDS011;2884;47.734;9.244;2023-09-08T06:00:03;6.70;;;5.53;;
5718;SDS011;2884;47.734;9.244;2023-09-08T06:02:28;6.87;;;6.13;;
5718;SDS011;2884;47.734;9.244;2023-09-08T06:04:54;5.70;;;5.20;;
5718;SDS011;2884;47.734;9.244;2023-09-08T06:07:21;6.63;;;5.50;;
5718;SDS011;2884;47.734;9.244;2023-09-08T06:09:50;6.60;;;5.67;;
5718;SDS011;2884;47.734;9.244;2023-09-08T06:12:16;8.07;;;5.97;;
5718;SDS011;2884;47.734;9.244;2023-09-08T06:14:41;7.27;;;5.87;;
5718;SDS011;2884;47.734;9.244;2023-09-08T06:17:06;11.03;;;5.80;;
5718;SDS011;2884;47.734;9.244;2023-09-08T06:19:33;7.37;;;6.10;;
5718;SDS011;2884;47.734;9.244;2023-09-08T06:21:58;6.70;;;6.00;;
5718;SDS011;2884;47.734;9.244;2023-09-08T06:24:23;7.10;;;6.20;;
5718;SDS011;2884;47.734;9.244;2023-09-08T06:26:49;7.93;;;6.83;;
5718;SDS011;2884;47.734;9.244;2023-09-08T06:29:15;9.87;;;7.43;;
5718;SDS011;2884;47.734;9.244;2023-09-08T06:31:40;8.30;;;6.13;;
5718;SDS011;2884;47.734;9.244;2023-09-08T06:34:06;6.60;;;5.97;;
5718;SDS011;2884;47.734;9.244;2023-09-08T06:36:32;8.07;;;6.37;;
5718;SDS011;2884;47.734;9.244;2023-09-08T06:38:57;7.23;;;6.43;;
5718;SDS011;2884;47.734;9.244;2023-09-08T06:41:23;9.20;;;6.03;;
5718;SDS011;2884;47.734;9.244;2023-09-08T06:43:49;6.50;;;5.80;;
5718;SDS011;2884;47.734;9.244;2023-09-08T06:46:14;11.00;;;6.20;;
5718;SDS011;2884;47.734;9.244;2023-09-08T06:48:40;8.53;;;6.33;;
5718;SDS011;2884;47.734;9.244;2023-09-08T06:51:06;6.10;;;5.50;;
5718;SDS011;2884;47.734;9.244;2023-09-08T06:53:31;7.57;;;6.80;;
5718;SDS011;2884;47.734;9.244;2023-09-08T06:55:57;6.40;;;5.80;;
5718;SDS011;2884;47.734;9.244;2023-09-08T06:58:23;10.60;;;5.80;;
5718;SDS011;2884;47.734;9.244;2023-09-08T07:00:49;6.60;;;6.00;;
5718;SDS011;2884;47.734;9.244;2023-09-08T07:03:15;7.93;;;6.40;;
5718;SDS011;2884;47.734;9.244;2023-09-08T07:05:41;7.80;;;6.10;;
5718;SDS011;2884;47.734;9.244;2023-09-08T07:08:06;6.13;;;5.53;;
5718;SDS011;2884;47.734;9.244;2023-09-08T07:10:32;6.10;;;5.50;;
5718;SDS011;2884;47.734;9.244;2023-09-08T07:12:58;13.03;;;5.73;;
5718;SDS011;2884;47.734;9.244;2023-09-08T07:15:23;10.57;;;6.10;;
5718;SDS011;2884;47.734;9.244;2023-09-08T07:17:49;8.37;;;6.33;;
5718;SDS011;2884;47.734;9.244;2023-09-08T07:20:14;9.63;;;5.60;;
5718;SDS011;2884;47.734;9.244;2023-09-08T07:22:40;7.87;;;5.93;;
5718;SDS011;2884;47.734;9.244;2023-09-08T07:25:06;6.30;;;5.40;;
5718;SDS011;2884;47.734;9.244;2023-09-08T07:27:32;8.50;;;6.70;;
5718;SDS011;2884;47.734;9.244;2023-09-08T07:29:59;8.47;;;6.20;;
5718;SDS011;2884;47.734;9.244;2023-09-08T07:32:24;6.57;;;5.70;;
5718;SDS011;2884;47.734;9.244;2023-09-08T07:34:50;9.77;;;5.97;;
5718;SDS011;2884;47.734;9.244;2023-09-08T07:37:20;9.37;;;6.30;;
5718;SDS011;2884;47.734;9.244;2023-09-08T07:39:47;10.07;;;5.73;;
5718;SDS011;2884;47.734;9.244;2023-09-08T07:42:13;8.50;;;6.13;;
5718;SDS011;2884;47.734;9.244;2023-09-08T07:44:39;8.60;;;5.60;;
5718;SDS011;2884;47.734;9.244;2023-09-08T07:47:05;5.73;;;5.23;;
5718;SDS011;2884;47.734;9.244;2023-09-08T07:49:32;6.33;;;5.63;;
5718;SDS011;2884;47.734;9.244;2023-09-08T07:51:58;6.63;;;5.77;;
5718;SDS011;2884;47.734;9.244;2023-09-08T07:54:24;7.00;;;5.43;;
5718;SDS011;2884;47.734;9.244;2023-09-08T07:56:49;6.20;;;5.60;;
5718;SDS011;2884;47.734;9.244;2023-09-08T07:59:15;6.13;;;5.50;;
5718;SDS011;2884;47.734;9.244;2023-09-08T08:01:40;9.30;;;7.13;;
5718;SDS011;2884;47.734;9.244;2023-09-08T08:04:06;7.60;;;5.43;;
5718;SDS011;2884;47.734;9.244;2023-09-08T08:06:31;8.53;;;5.43;;
5718;SDS011;2884;47.734;9.244;2023-09-08T08:08:57;7.83;;;5.73;;
5718;SDS011;2884;47.734;9.244;2023-09-08T08:11:23;9.10;;;5.30;;
5718;SDS011;2884;47.734;9.244;2023-09-08T08:13:48;5.00;;;4.60;;
5718;SDS011;2884;47.734;9.244;2023-09-08T08:16:14;7.43;;;5.17;;
5718;SDS011;2884;47.734;9.244;2023-09-08T08:18:39;5.80;;;5.20;;
5718;SDS011;2884;47.734;9.244;2023-09-08T08:21:05;9.90;;;4.80;;
5718;SDS011;2884;47.734;9.244;2023-09-08T08:23:31;5.97;;;5.37;;
5718;SDS011;2884;47.734;9.244;2023-09-08T08:25:57;6.20;;;5.60;;
5718;SDS011;2884;47.734;9.244;2023-09-08T08:28:23;5.67;;;5.13;;
5718;SDS011;2884;47.734;9.244;2023-09-08T08:30:50;10.20;;;5.23;;
5718;SDS011;2884;47.734;9.244;2023-09-08T08:33:15;7.47;;;6.67;;
5718;SDS011;2884;47.734;9.244;2023-09-08T08:35:41;9.03;;;6.07;;
5718;SDS011;2884;47.734;9.244;2023-09-08T08:38:07;10.80;;;5.50;;
5718;SDS011;2884;47.734;9.244;2023-09-08T08:40:32;8.00;;;6.17;;
5718;SDS011;2884;47.734;9.244;2023-09-08T08:42:59;5.60;;;4.83;;
5718;SDS011;2884;47.734;9.244;2023-09-08T08:45:26;8.60;;;5.83;;
5718;SDS011;2884;47.734;9.244;2023-09-08T08:47:52;11.30;;;6.27;;
5718;SDS011;2884;47.734;9.244;2023-09-08T08:50:18;6.30;;;5.20;;
5718;SDS011;2884;47.734;9.244;2023-09-08T08:52:45;6.60;;;6.00;;
5718;SDS011;2884;47.734;9.244;2023-09-08T08:55:10;6.93;;;6.23;;
5718;SDS011;2884;47.734;9.244;2023-09-08T08:57:36;7.77;;;5.83;;
5718;SDS011;2884;47.734;9.244;2023-09-08T09:00:11;9.10;;;6.50;;
5718;SDS011;2884;47.734;9.244;2023-09-08T09:02:41;7.50;;;5.50;;
5718;SDS011;2884;47.734;9.244;2023-09-08T09:05:09;5.40;;;4.90;;
5718;SDS011;2884;47.734;9.244;2023-09-08T09:07:36;7.17;;;5.20;;
5718;SDS011;2884;47.734;9.244;2023-09-08T09:10:03;7.53;;;5.87;;
5718;SDS011;2884;47.734;9.244;2023-09-08T09:12:29;8.50;;;5.70;;
5718;SDS011;2884;47.734;9.244;2023-09-08T09:14:55;9.97;;;5.80;;
5718;SDS011;2884;47.734;9.244;2023-09-08T09:17:23;5.43;;;4.90;;
5718;SDS011;2884;47.734;9.244;2023-09-08T09:19:49;5.97;;;5.47;;
5718;SDS011;2884;47.734;9.244;2023-09-08T09:22:14;11.10;;;5.07;;
5718;SDS011;2884;47.734;9.244;2023-09-08T09:24:45;7.67;;;4.90;;
5718;SDS011;2884;47.734;9.244;2023-09-08T09:27:14;10.73;;;5.23;;
5718;SDS011;2884;47.734;9.244;2023-09-08T09:29:44;6.30;;;5.37;;
5718;SDS011;2884;47.734;9.244;2023-09-08T09:32:14;6.90;;;5.57;;
5718;SDS011;2884;47.734;9.244;2023-09-08T09:34:47;8.80;;;5.43;;
5718;SDS011;2884;47.734;9.244;2023-09-08T09:37:22;10.53;;;6.87;;
5718;SDS011;2884;47.734;9.244;2023-09-08T09:39:48;8.70;;;6.07;;
5718;SDS011;2884;47.734;9.244;2023-09-08T09:42:15;7.57;;;5.17;;
5718;SDS011;2884;47.734;9.244;2023-09-08T09:44:41;7.17;;;4.80;;
5718;SDS011;2884;47.734;9.244;2023-09-08T09:47:06;9.90;;;4.87;;
5718;SDS011;2884;47.734;9.244;2023-09-08T09:49:35;11.60;;;5.60;;
5718;SDS011;2884;47.734;9.244;2023-09-08T09:52:11;6.20;;;4.90;;
5718;SDS011;2884;47.734;9.244;2023-09-08T09:54:43;6.23;;;4.53;;
5718;SDS011;2884;47.734;9.244;2023-09-08T09:57:11;5.97;;;5.40;;
5718;SDS011;2884;47.734;9.244;2023-09-08T09:59:38;8.93;;;6.33;;
5718;SDS011;2884;47.734;9.244;2023-09-08T10:02:06;6.37;;;5.87;;
5718;SDS011;2884;47.734;9.244;2023-09-08T10:04:41;5.27;;;4.87;;
5718;SDS011;2884;47.734;9.244;2023-09-08T10:07:07;6.40;;;5.30;;
5718;SDS011;2884;47.734;9.244;2023-09-08T10:09:35;17.00;;;5.30;;
5718;SDS011;2884;47.734;9.244;2023-09-08T10:12:05;6.50;;;5.27;;
5718;SDS011;2884;47.734;9.244;2023-09-08T10:14:37;6.67;;;4.90;;
5718;SDS011;2884;47.734;9.244;2023-09-08T10:17:06;7.10;;;4.83;;
5718;SDS011;2884;47.734;9.244;2023-09-08T10:19:34;7.97;;;5.67;;
5718;SDS011;2884;47.734;9.244;2023-09-08T10:22:06;4.87;;;4.47;;
5718;SDS011;2884;47.734;9.244;2023-09-08T10:24:37;5.50;;;5.00;;
5718;SDS011;2884;47.734;9.244;2023-09-08T10:27:10;6.90;;;4.83;;
5718;SDS011;2884;47.734;9.244;2023-09-08T10:29:37;4.50;;;4.20;;
5718;SDS011;2884;47.734;9.244;2023-09-08T10:32:03;5.17;;;4.77;;
5718;SDS011;2884;47.734;9.244;2023-09-08T10:34:30;9.63;;;4.80;;
5718;SDS011;2884;47.734;9.244;2023-09-08T10:36:56;10.87;;;4.87;;
5718;SDS011;2884;47.734;9.244;2023-09-08T10:47:14;9.17;;;4.80;;
5718;SDS011;2884;47.734;9.244;2023-09-08T10:49:44;6.50;;;5.80;;
5718;SDS011;2884;47.734;9.244;2023-09-08T10:52:12;7.90;;;5.70;;
5718;SDS011;2884;47.734;9.244;2023-09-08T10:54:41;7.47;;;4.93;;
5718;SDS011;2884;47.734;9.244;2023-09-08T10:57:17;7.20;;;5.10;;
5718;SDS011;2884;47.734;9.244;2023-09-08T10:59:55;7.97;;;4.57;;
5718;SDS011;2884;47.734;9.244;2023-09-08T11:02:37;9.53;;;6.80;;
5718;SDS011;2884;47.734;9.244;2023-09-08T11:05:08;6.73;;;6.13;;
5718;SDS011;2884;47.734;9.244;2023-09-08T11:07:37;8.20;;;5.23;;
5718;SDS011;2884;47.734;9.244;2023-09-08T11:10:04;7.90;;;6.50;;
5718;SDS011;2884;47.734;9.244;2023-09-08T11:12:30;8.87;;;5.20;;
5718;SDS011;2884;47.734;9.244;2023-09-08T11:14:57;7.00;;;6.30;;
5718;SDS011;2884;47.734;9.244;2023-09-08T11:17:26;10.93;;;5.87;;
5718;SDS011;2884;47.734;9.244;2023-09-08T11:19:53;6.93;;;5.70;;
5718;SDS011;2884;47.734;9.244;2023-09-08T11:22:21;6.33;;;5.73;;
5718;SDS011;2884;47.734;9.244;2023-09-08T11:24:49;8.20;;;6.20;;
5718;SDS011;2884;47.734;9.244;2023-09-08T11:27:14;7.63;;;5.70;;
5718;SDS011;2884;47.734;9.244;2023-09-08T11:29:40;6.03;;;5.53;;
5718;SDS011;2884;47.734;9.244;2023-09-08T11:32:06;11.10;;;6.27;;
5718;SDS011;2884;47.734;9.244;2023-09-08T11:34:34;6.93;;;5.77;;
5718;SDS011;2884;47.734;9.244;2023-09-08T11:37:00;5.90;;;5.30;;
5718;SDS011;2884;47.734;9.244;2023-09-08T11:39:25;7.13;;;5.83;;
5718;SDS011;2884;47.734;9.244;2023-09-08T11:41:51;9.73;;;6.27;;
5718;SDS011;2884;47.734;9.244;2023-09-08T11:44:17;7.83;;;5.30;;
5718;SDS011;2884;47.734;9.244;2023-09-08T11:46:43;5.83;;;5.33;;
5718;SDS011;2884;47.734;9.244;2023-09-08T11:49:09;9.60;;;5.70;;
5718;SDS011;2884;47.734;9.244;2023-09-08T11:51:35;5.90;;;5.30;;
5718;SDS011;2884;47.734;9.244;2023-09-08T11:54:00;7.83;;;5.83;;
5718;SDS011;2884;47.734;9.244;2023-09-08T11:56:26;6.00;;;5.40;;
5718;SDS011;2884;47.734;9.244;2023-09-08T11:58:51;6.20;;;5.60;;
5718;SDS011;2884;47.734;9.244;2023-09-08T12:01:17;5.20;;;4.70;;
5718;SDS011;2884;47.734;9.244;2023-09-08T12:03:53;6.60;;;5.90;;
5718;SDS011;2884;47.734;9.244;2023-09-08T12:06:19;6.10;;;5.60;;
5718;SDS011;2884;47.734;9.244;2023-09-08T12:08:53;7.83;;;5.93;;
5718;SDS011;2884;47.734;9.244;2023-09-08T12:11:19;6.00;;;5.40;;
5718;SDS011;2884;47.734;9.244;2023-09-08T12:13:44;7.73;;;5.60;;
5718;SDS011;2884;47.734;9.244;2023-09-08T12:16:20;6.60;;;5.30;;
5718;SDS011;2884;47.734;9.244;2023-09-08T12:18:48;5.40;;;4.77;;
5718;SDS011;2884;47.734;9.244;2023-09-08T12:21:15;10.53;;;5.93;;
5718;SDS011;2884;47.734;9.244;2023-09-08T12:23:50;9.17;;;5.27;;
5718;SDS011;2884;47.734;9.244;2023-09-08T12:26:16;14.17;;;5.40;;
5718;SDS011;2884;47.734;9.244;2023-09-08T12:28:42;6.50;;;5.63;;
5718;SDS011;2884;47.734;9.244;2023-09-08T12:31:08;5.53;;;5.13;;
5718;SDS011;2884;47.734;9.244;2023-09-08T12:33:35;7.80;;;5.23;;
5718;SDS011;2884;47.734;9.244;2023-09-08T12:36:09;5.07;;;4.67;;
5718;SDS011;2884;47.734;9.244;2023-09-08T12:38:39;5.10;;;4.40;;
5718;SDS011;2884;47.734;9.244;2023-09-08T12:41:04;7.27;;;5.03;;
5718;SDS011;2884;47.734;9.244;2023-09-08T12:43:30;8.20;;;4.70;;
5718;SDS011;2884;47.734;9.244;2023-09-08T12:45:55;5.60;;;5.10;;
5718;SDS011;2884;47.734;9.244;2023-09-08T12:48:21;8.90;;;4.63;;
5718;SDS011;2884;47.734;9.244;2023-09-08T12:50:47;5.50;;;4.87;;
5718;SDS011;2884;47.734;9.244;2023-09-08T12:53:14;5.60;;;4.63;;
5718;SDS011;2884;47.734;9.244;2023-09-08T12:55:40;5.80;;;5.23;;
5718;SDS011;2884;47.734;9.244;2023-09-08T12:58:05;4.80;;;4.30;;
5718;SDS011;2884;47.734;9.244;2023-09-08T13:00:31;5.50;;;4.97;;
5718;SDS011;2884;47.734;9.244;2023-09-08T13:02:56;4.67;;;4.27;;
5718;SDS011;2884;47.734;9.244;2023-09-08T13:05:22;5.20;;;4.80;;
5718;SDS011;2884;47.734;9.244;2023-09-08T13:07:48;7.63;;;4.90;;
5718;SDS011;2884;47.734;9.244;2023-09-08T13:10:13;4.70;;;4.30;;
5718;SDS011;2884;47.734;9.244;2023-09-08T13:12:39;6.93;;;5.27;;
5718;SDS011;2884;47.734;9.244;2023-09-08T13:15:04;7.13;;;5.37;;
5718;SDS011;2884;47.734;9.244;2023-09-08T13:17:30;5.70;;;5.20;;
5718;SDS011;2884;47.734;9.244;2023-09-08T13:19:56;6.53;;;5.50;;
5718;SDS011;2884;47.734;9.244;2023-09-08T13:22:22;7.97;;;5.53;;
5718;SDS011;2884;47.734;9.244;2023-09-08T13:24:47;10.97;;;4.40;;
5718;SDS011;2884;47.734;9.244;2023-09-08T13:27:13;14.13;;;5.50;;
5718;SDS011;2884;47.734;9.244;2023-09-08T13:29:40;8.63;;;5.10;;
5718;SDS011;2884;47.734;9.244;2023-09-08T13:32:06;9.90;;;5.20;;
5718;SDS011;2884;47.734;9.244;2023-09-08T13:34:32;7.07;;;5.57;;
5718;SDS011;2884;47.734;9.244;2023-09-08T13:37:00;5.37;;;4.87;;
5718;SDS011;2884;47.734;9.244;2023-09-08T13:39:27;5.07;;;4.67;;
5718;SDS011;2884;47.734;9.244;2023-09-08T13:41:53;6.00;;;5.40;;
5718;SDS011;2884;47.734;9.244;2023-09-08T13:44:21;9.43;;;5.47;;
5718;SDS011;2884;47.734;9.244;2023-09-08T13:46:51;5.27;;;4.30;;
5718;SDS011;2884;47.734;9.244;2023-09-08T13:49:19;5.47;;;4.87;;
5718;SDS011;2884;47.734;9.244;2023-09-08T13:51:45;5.10;;;4.70;;
5718;SDS011;2884;47.734;9.244;2023-09-08T13:54:11;5.70;;;4.77;;
5718;SDS011;2884;47.734;9.244;2023-09-08T13:56:38;5.90;;;5.40;;
5718;SDS011;2884;47.734;9.244;2023-09-08T13:59:06;5.20;;;4.77;;
5718;SDS011;2884;47.734;9.244;2023-09-08T14:01:35;5.30;;;4.50;;
5718;SDS011;2884;47.734;9.244;2023-09-08T14:04:02;5.10;;;4.60;;
5718;SDS011;2884;47.734;9.244;2023-09-08T14:06:29;8.13;;;6.00;;
5718;SDS011;2884;47.734;9.244;2023-09-08T14:08:54;6.40;;;4.50;;
5718;SDS011;2884;47.734;9.244;2023-09-08T14:11:21;6.00;;;4.63;;
5718;SDS011;2884;47.734;9.244;2023-09-08T14:13:48;6.20;;;4.83;;
5718;SDS011;2884;47.734;9.244;2023-09-08T14:16:13;8.13;;;4.90;;
5718;SDS011;2884;47.734;9.244;2023-09-08T14:18:39;9.30;;;4.63;;
5718;SDS011;2884;47.734;9.244;2023-09-08T14:21:08;5.17;;;4.73;;
5718;SDS011;2884;47.734;9.244;2023-09-08T14:23:34;8.47;;;4.80;;
5718;SDS011;2884;47.734;9.244;2023-09-08T14:26:01;8.00;;;5.30;;
5718;SDS011;2884;47.734;9.244;2023-09-08T14:28:27;5.30;;;4.90;;
5718;SDS011;2884;47.734;9.244;2023-09-08T14:30:53;4.93;;;4.53;;
5718;SDS011;2884;47.734;9.244;2023-09-08T14:33:19;5.30;;;4.80;;
5718;SDS011;2884;47.734;9.244;2023-09-08T14:35:45;8.50;;;5.50;;
5718;SDS011;2884;47.734;9.244;2023-09-08T14:38:16;4.87;;;4.47;;
5718;SDS011;2884;47.734;9.244;2023-09-08T14:40:53;9.53;;;5.50;;
5718;SDS011;2884;47.734;9.244;2023-09-08T14:43:23;6.33;;;5.00;;
5718;SDS011;2884;47.734;9.244;2023-09-08T14:45:50;6.50;;;5.13;;
5718;SDS011;2884;47.734;9.244;2023-09-08T14:48:17;8.33;;;5.60;;
5718;SDS011;2884;47.734;9.244;2023-09-08T14:50:42;5.83;;;5.20;;
5718;SDS011;2884;47.734;9.244;2023-09-08T14:53:08;5.03;;;4.63;;
5718;SDS011;2884;47.734;9.244;2023-09-08T14:55:34;5.27;;;4.77;;
5718;SDS011;2884;47.734;9.244;2023-09-08T14:58:01;5.80;;;5.30;;
5718;SDS011;2884;47.734;9.244;2023-09-08T15:00:27;5.50;;;5.00;;
5718;SDS011;2884;47.734;9.244;2023-09-08T15:02:53;6.60;;;5.07;;
5718;SDS011;2884;47.734;9.244;2023-09-08T15:05:19;8.93;;;4.83;;
5718;SDS011;2884;47.734;9.244;2023-09-08T15:07:45;7.70;;;4.73;;
5718;SDS011;2884;47.734;9.244;2023-09-08T15:10:11;9.30;;;6.20;;
5718;SDS011;2884;47.734;9.244;2023-09-08T15:12:36;6.80;;;5.47;;
5718;SDS011;2884;47.734;9.244;2023-09-08T15:15:03;9.17;;;5.53;;
5718;SDS011;2884;47.734;9.244;2023-09-08T15:17:29;9.47;;;5.70;;
5718;SDS011;2884;47.734;9.244;2023-09-08T15:19:55;6.63;;;5.27;;
5718;SDS011;2884;47.734;9.244;2023-09-08T15:22:21;9.20;;;5.70;;